Time;durP1;ratioP1;P1;durP2;ratioP2;P2;SDS_P1;SDS_P2;PMS_P1;PMS_P2;Temp;Humidity;BMP_temperature;BMP_pressure;BME280_temperature;BME280_humidity;BME280_pressure;Samples;Min_cycle;Max_cycle;Signal;HPM_P1;HPM_P2
2022/09/28 00:00:22;;;;;;;;;;;;;;;7.30;94.29;95242.44;30002;982;1871;-54
2022/09/28 00:00:53;;;;;;;;;;;;;;;7.29;94.09;95242.75;30002;982;1871;-54
2022/09/28 00:01:25;;;;;;;;;;;;;;;7.28;94.32;95239.25;30002;983;1870;-55
2022/09/28 00:01:55;;;;;;;;;;;;;;;7.29;94.40;95243.53;30002;983;1883;-55
2022/09/28 00:02:30;;;;;;;;;;;;;;;7.30;94.36;95239.72;30002;983;1879;-56
2022/09/28 00:03:01;;;;;;;;;;;;;;;7.34;94.48;95240.69;30002;983;1871;-55
2022/09/28 00:03:31;;;;;;;;;;;;;;;7.33;94.26;95233.72;30002;983;1871;-55
2022/09/28 00:04:02;;;;;;;;;;;;;;;7.34;93.93;95235.31;30002;983;1884;-55
2022/09/28 00:04:33;;;;;;;;;;;;;;;7.33;94.18;95236.41;30002;983;1879;-55
2022/09/28 00:05:05;;;;;;;;;;;;;;;7.31;93.92;95238.63;30002;983;1884;-60
2022/09/28 00:05:35;;;;;;;;;;;;;;;7.30;93.80;95234.34;30002;983;1880;-54
2022/09/28 00:06:08;;;;;;;;;;;;;;;7.27;94.12;95232.28;30002;982;1884;-62
2022/09/28 00:06:39;;;;;;;;;;;;;;;7.25;94.09;95231.81;30002;982;1880;-55
2022/09/28 00:07:10;;;;;;;;;;;;;;;7.22;94.58;95235.13;30002;982;1884;-55
2022/09/28 00:07:40;;;;;;;;;;;;;;;7.18;94.63;95226.06;30002;986;1853;-61
2022/09/28 00:08:12;;;;;;;;;;;;;;;7.20;95.08;95229.25;30002;982;1871;-61
2022/09/28 00:08:43;;;;;;;;;;;;;;;7.20;94.88;95233.84;30002;983;1875;-55
2022/09/28 00:09:15;;;;;;;;;;;;;;;7.25;94.90;95231.81;30002;983;1879;-55
2022/09/28 00:09:45;;;;;;;;;;;;;;;7.29;94.76;95227.34;30002;983;1875;-55
2022/09/28 00:10:16;;;;;;;;;;;;;;;7.30;94.92;95218.16;30002;983;1879;-55
2022/09/28 00:10:53;;;;;;;;;;;;;;;7.30;94.48;95228.94;30002;983;1875;-55
2022/09/28 00:11:27;;;;;;;;;;;;;;;7.29;94.82;95221.94;30001;983;1879;-54
2022/09/28 00:11:58;;;;;;;;;;;;;;;7.29;94.55;95221.94;30001;983;1875;-53
2022/09/28 00:12:30;;;;;;;;;;;;;;;7.28;94.59;95220.38;30001;983;1880;-56
2022/09/28 00:13:01;;;;;;;;;;;;;;;7.31;94.52;95218.94;30001;983;1862;-54
2022/09/28 00:13:32;;;;;;;;;;;;;;;7.29;94.74;95213.84;30002;983;1871;-55
2022/09/28 00:14:07;;;;;;;;;;;;;;;7.29;94.47;95215.75;30001;982;1875;-55
2022/09/28 00:14:39;;;;;;;;;;;;;;;7.29;94.92;95221.94;30001;982;1880;-55
2022/09/28 00:15:10;;;;;;;;;;;;;;;7.32;94.86;95213.25;30001;982;1862;-55
2022/09/28 00:15:41;;;;;;;;;;;;;;;7.31;94.78;95211.66;30001;982;1871;-60
2022/09/28 00:16:13;;;;;;;;;;;;;;;7.33;94.35;95214.84;30001;983;1875;-55
2022/09/28 00:16:44;;;;;;;;;;;;;;;7.33;94.39;95212.13;30001;983;1879;-55
2022/09/28 00:17:15;;;;;;;;;;;;;;;7.34;94.46;95208.31;30001;983;1875;-54
2022/09/28 00:17:46;;;;;;;;;;;;;;;7.35;94.84;95207.22;30001;983;1879;-55
2022/09/28 00:18:18;;;;;;;;;;;;;;;7.34;94.54;95208.31;30001;983;1875;-55
2022/09/28 00:18:50;;;;;;;;;;;;;;;7.29;94.63;95205.75;30001;983;1866;-54
2022/09/28 00:19:21;;;;;;;;;;;;;;;7.28;94.86;95206.87;30001;983;1866;-56
2022/09/28 00:19:52;;;;;;;;;;;;;;;7.28;95.02;95209.56;30001;983;1880;-55
2022/09/28 00:20:23;;;;;;;;;;;;;;;7.31;95.18;95203.56;30001;983;1875;-54
2022/09/28 00:21:07;;;;;;;;;;;;;;;7.31;95.01;95203.56;30001;983;1880;-56
2022/09/28 00:21:39;;;;;;;;;;;;;;;7.32;94.43;95205.16;30001;982;1875;-55
2022/09/28 00:22:11;;;;;;;;;;;;;;;7.33;94.79;95200.53;30001;982;1880;-56
2022/09/28 00:22:42;;;;;;;;;;;;;;;7.30;94.54;95196.56;30001;982;1876;-55
2022/09/28 00:23:12;;;;;;;;;;;;;;;7.31;94.82;95203.56;30001;982;1880;-55
2022/09/28 00:24:33;;;;;;;;;;;;;;;7.26;95.03;95194.84;30001;983;1857;-54
2022/09/28 00:25:08;;;;;;;;;;;;;;;7.26;95.52;95195.62;30001;983;1875;-55
2022/09/28 00:25:38;;;;;;;;;;;;;;;7.30;95.54;95198.47;30001;983;1879;-55
2022/09/28 00:26:09;;;;;;;;;;;;;;;7.27;95.27;95193.72;30001;983;1875;-60
2022/09/28 00:26:50;;;;;;;;;;;;;;;7.26;95.76;95195.62;30001;983;1879;-55
2022/09/28 00:27:21;;;;;;;;;;;;;;;7.24;95.77;95197.03;30001;983;1875;-55
2022/09/28 00:27:52;;;;;;;;;;;;;;;7.25;95.66;95191.34;30001;983;1866;-55
2022/09/28 00:28:23;;;;;;;;;;;;;;;7.34;95.67;95189.44;30001;983;1867;-55
2022/09/28 00:28:55;;;;;;;;;;;;;;;7.39;95.31;95188.50;30001;982;1867;-54
2022/09/28 00:29:30;;;;;;;;;;;;;;;7.42;95.06;95187.09;30001;982;1867;-56
2022/09/28 00:30:01;;;;;;;;;;;;;;;7.37;94.90;95186.13;30001;982;1880;-55
2022/09/28 00:30:32;;;;;;;;;;;;;;;7.36;95.10;95187.22;30001;982;1876;-54
2022/09/28 00:31:03;;;;;;;;;;;;;;;7.40;95.30;95185.50;30001;982;1880;-54
2022/09/28 00:31:34;;;;;;;;;;;;;;;7.37;94.81;95191.50;30001;983;1875;-55
2022/09/28 00:32:12;;;;;;;;;;;;;;;7.34;94.97;95186.75;30001;983;1879;-62
2022/09/28 00:32:43;;;;;;;;;;;;;;;7.29;95.17;95188.78;30001;983;1875;-55
2022/09/28 00:33:16;;;;;;;;;;;;;;;7.27;95.48;95186.44;30001;983;1879;-55
2022/09/28 00:33:50;;;;;;;;;;;;;;;7.30;95.68;95185.78;30001;983;1875;-55
2022/09/28 00:34:21;;;;;;;;;;;;;;;7.30;95.68;95174.97;30001;983;1866;-55
2022/09/28 00:34:53;;;;;;;;;;;;;;;7.30;95.67;95180.38;30001;983;1866;-55
2022/09/28 00:35:24;;;;;;;;;;;;;;;7.30;96.04;95177.69;30001;983;1880;-55
2022/09/28 00:35:58;;;;;;;;;;;;;;;7.30;95.75;95174.97;30001;982;1875;-54
2022/09/28 00:36:30;;;;;;;;;;;;;;;7.32;96.04;95174.66;30001;982;1880;-56
2022/09/28 00:37:02;;;;;;;;;;;;;;;7.35;95.75;95177.53;30001;982;1875;-54
2022/09/28 00:37:33;;;;;;;;;;;;;;;7.35;95.93;95177.53;30001;982;1880;-56
2022/09/28 00:38:04;;;;;;;;;;;;;;;7.35;95.80;95177.53;30001;982;1876;-54
2022/09/28 00:38:38;;;;;;;;;;;;;;;7.33;95.54;95173.56;30001;982;1880;-55
2022/09/28 00:39:13;;;;;;;;;;;;;;;7.30;95.71;95172.28;30001;983;1862;-55
2022/09/28 00:39:45;;;;;;;;;;;;;;;7.28;96.21;95169.09;30001;983;1870;-55
2022/09/28 00:40:15;;;;;;;;;;;;;;;7.29;96.24;95173.38;30001;983;1875;-54
2022/09/28 00:40:46;;;;;;;;;;;;;;;7.30;96.37;95164.19;30001;983;1879;-55
2022/09/28 00:41:17;;;;;;;;;;;;;;;7.30;96.07;95160.69;30001;983;1875;-55
2022/09/28 00:41:48;;;;;;;;;;;;;;;7.29;96.43;95161.81;30001;983;1866;-54
2022/09/28 00:42:23;;;;;;;;;;;;;;;7.26;96.63;95157.88;30001;983;1866;-55
2022/09/28 00:42:53;;;;;;;;;;;;;;;7.24;96.77;95154.69;30001;983;1880;-55
2022/09/28 00:43:25;;;;;;;;;;;;;;;7.32;96.51;95161.19;30001;982;1875;-55
2022/09/28 00:44:14;;;;;;;;;;;;;;;7.31;96.72;95155.00;30001;982;1880;-60
2022/09/28 00:44:55;;;;;;;;;;;;;;;7.30;96.38;95155.31;30001;982;1867;-55
2022/09/28 00:45:26;;;;;;;;;;;;;;;7.31;96.56;95149.59;30001;982;1880;-55
2022/09/28 00:45:59;;;;;;;;;;;;;;;7.29;96.78;95143.72;30001;982;1876;-55
2022/09/28 00:46:32;;;;;;;;;;;;;;;7.28;96.67;95150.22;30001;983;1879;-54
2022/09/28 00:47:26;;;;;;;;;;;;;;;7.27;96.64;95151.34;30001;983;1862;-55
2022/09/28 00:47:59;;;;;;;;;;;;;;;7.29;97.19;95145.63;30001;983;1870;-54
2022/09/28 00:48:33;;;;;;;;;;;;;;;7.31;96.85;95143.41;30001;983;1862;-59
2022/09/28 00:49:07;;;;;;;;;;;;;;;7.31;97.03;95144.19;30001;983;1871;-55
2022/09/28 00:49:50;;;;;;;;;;;;;;;7.30;96.92;95145.31;30001;983;1875;-55
2022/09/28 00:50:27;;;;;;;;;;;;;;;7.28;97.26;95138.63;30001;983;1880;-55
2022/09/28 00:51:01;;;;;;;;;;;;;;;7.26;97.19;95146.28;30001;982;1875;-55
2022/09/28 00:51:32;;;;;;;;;;;;;;;7.26;97.69;95146.28;30001;982;1880;-55
2022/09/28 00:52:04;;;;;;;;;;;;;;;7.28;97.96;95138.63;30001;982;1875;-55
2022/09/28 00:52:40;;;;;;;;;;;;;;;7.30;98.02;95136.41;30001;982;1880;-55
2022/09/28 00:53:17;;;;;;;;;;;;;;;7.30;97.67;95137.22;30001;982;1876;-55
2022/09/28 00:53:48;;;;;;;;;;;;;;;7.30;97.69;95137.22;30001;982;1867;-56
2022/09/28 00:54:21;;;;;;;;;;;;;;;7.31;97.78;95130.72;30001;983;1866;-64
2022/09/28 00:54:54;;;;;;;;;;;;;;;7.38;98.15;95139.13;30001;983;1879;-59
2022/09/28 00:55:32;;;;;;;;;;;;;;;7.40;97.57;95131.53;30001;983;1875;-55
2022/09/28 00:56:06;;;;;;;;;;;;;;;7.42;97.61;95125.81;30001;983;1866;-55
2022/09/28 00:56:39;;;;;;;;;;;;;;;7.39;97.48;95116.44;30001;983;1866;-55
2022/09/28 00:57:10;;;;;;;;;;;;;;;7.38;97.72;95122.16;30001;983;1879;-54
2022/09/28 00:57:43;;;;;;;;;;;;;;;7.37;97.90;95115.97;30001;983;1875;-54
2022/09/28 00:58:20;;;;;;;;;;;;;;;7.44;98.13;95120.09;30001;982;1880;-54
2022/09/28 00:58:55;;;;;;;;;;;;;;;7.49;97.66;95117.25;30001;982;1875;-54
2022/09/28 00:59:26;;;;;;;;;;;;;;;7.47;97.84;95111.38;30001;982;1880;-55
2022/09/28 00:59:58;;;;;;;;;;;;;;;7.43;97.66;95116.63;30001;982;1875;-55
2022/09/28 01:00:29;;;;;;;;;;;;;;;7.40;98.06;95114.53;30001;982;1880;-55
2022/09/28 01:01:01;;;;;;;;;;;;;;;7.43;97.84;95108.53;30001;982;1876;-56
2022/09/28 01:01:32;;;;;;;;;;;;;;;7.41;98.34;95110.72;30001;983;1866;-55
2022/09/28 01:02:02;;;;;;;;;;;;;;;7.44;98.22;95104.72;30001;983;1866;-56
2022/09/28 01:02:33;;;;;;;;;;;;;;;7.47;98.50;95114.87;30001;983;1879;-55
2022/09/28 01:03:04;;;;;;;;;;;;;;;7.48;98.30;95107.56;30001;983;1875;-62
2022/09/28 01:03:36;;;;;;;;;;;;;;;7.46;98.25;95115.19;30001;983;1879;-55
2022/09/28 01:04:07;;;;;;;;;;;;;;;7.46;98.20;95104.41;30001;983;1875;-52
2022/09/28 01:04:38;;;;;;;;;;;;;;;7.46;98.19;95107.87;30001;983;1879;-55
2022/09/28 01:05:10;;;;;;;;;;;;;;;7.47;98.46;95108.69;30001;983;1875;-55
2022/09/28 01:05:42;;;;;;;;;;;;;;;7.51;98.43;95109.66;30001;982;1880;-63
2022/09/28 01:06:33;;;;;;;;;;;;;;;7.48;98.08;95110.28;30001;982;1875;-63
2022/09/28 01:07:06;;;;;;;;;;;;;;;7.45;98.29;95113.59;30001;982;1862;-54
2022/09/28 01:07:37;;;;;;;;;;;;;;;7.46;98.70;95107.09;30001;982;1867;-55
2022/09/28 01:08:09;;;;;;;;;;;;;;;7.44;98.61;95109.31;30001;982;1867;-55
2022/09/28 01:08:40;;;;;;;;;;;;;;;7.48;98.84;95107.56;30001;983;1866;-54
2022/09/28 01:09:13;;;;;;;;;;;;;;;7.51;98.56;95104.25;30001;983;1879;-54
2022/09/28 01:09:44;;;;;;;;;;;;;;;7.51;98.26;95109.66;30001;983;1874;-54
2022/09/28 01:10:16;;;;;;;;;;;;;;;7.49;98.53;95103.75;30001;983;1879;-53
2022/09/28 01:10:47;;;;;;;;;;;;;;;7.47;98.43;95095.19;30001;983;1875;-55
2022/09/28 01:11:18;;;;;;;;;;;;;;;7.52;98.80;95100.44;30001;983;1879;-55
2022/09/28 01:11:50;;;;;;;;;;;;;;;7.54;98.59;95087.41;30001;983;1875;-55
2022/09/28 01:12:21;;;;;;;;;;;;;;;7.53;98.59;95096.62;30001;983;1879;-54
2022/09/28 01:12:54;;;;;;;;;;;;;;;7.52;98.24;95095.84;30001;983;1875;-61
2022/09/28 01:13:26;;;;;;;;;;;;;;;7.55;98.59;95094.41;30001;982;1867;-55
2022/09/28 01:14:00;;;;;;;;;;;;;;;7.58;98.29;95091.06;30001;982;1867;-54
2022/09/28 01:14:31;;;;;;;;;;;;;;;7.59;98.41;95084.56;30001;982;1880;-61
2022/09/28 01:15:04;;;;;;;;;;;;;;;7.58;98.10;95072.19;30001;982;1876;-56
2022/09/28 01:15:40;;;;;;;;;;;;;;;7.59;98.47;95084.56;30001;982;1880;-55
2022/09/28 01:16:40;;;;;;;;;;;;;;;7.57;98.26;95078.69;30001;983;1875;-54
2022/09/28 01:17:14;;;;;;;;;;;;;;;7.56;98.64;95085.19;30001;983;1862;-55
2022/09/28 01:17:53;;;;;;;;;;;;;;;7.56;98.41;95074.41;30001;983;1866;-53
2022/09/28 01:18:52;;;;;;;;;;;;;;;7.57;98.59;95073.28;30001;983;1879;-54
2022/09/28 01:19:46;;;;;;;;;;;;;;;7.55;98.40;95075.53;30001;983;1871;-54
2022/09/28 01:20:26;;;;;;;;;;;;;;;7.61;98.45;95071.56;30001;983;1862;-54
2022/09/28 01:22:25;;;;;;;;;;;;;;;7.57;98.42;95065.19;89988;930;16000;-54
2022/09/28 01:23:16;;;;;;;;;;;;;;;7.55;98.16;95075.53;30001;983;1868;-55
2022/09/28 01:24:02;;;;;;;;;;;;;;;7.53;98.80;95067.75;30001;982;1864;-55
2022/09/28 01:24:42;;;;;;;;;;;;;;;7.54;99.15;95065.84;30001;982;1881;-55
2022/09/28 01:25:36;;;;;;;;;;;;;;;7.54;99.20;95066.62;30001;982;1876;-55
2022/09/28 01:26:30;;;;;;;;;;;;;;;7.55;99.35;95073.62;30001;983;1862;-53
2022/09/28 01:27:19;;;;;;;;;;;;;;;7.55;99.02;95073.62;30001;983;1863;-55
2022/09/28 01:27:53;;;;;;;;;;;;;;;7.56;99.21;95071.72;30001;983;1872;-56
2022/09/28 01:28:26;;;;;;;;;;;;;;;7.58;99.17;95058.69;30001;983;1876;-55
2022/09/28 01:29:16;;;;;;;;;;;;;;;7.58;99.27;95061.37;30001;983;1881;-55
2022/09/28 01:29:54;;;;;;;;;;;;;;;7.61;99.25;95060.75;30001;983;1867;-62
2022/09/28 01:30:25;;;;;;;;;;;;;;;7.60;99.19;95059.16;30001;983;1881;-56
2022/09/28 01:31:02;;;;;;;;;;;;;;;7.59;99.08;95062.97;30001;983;1877;-55
2022/09/28 01:31:37;;;;;;;;;;;;;;;7.65;99.17;95067.09;30001;982;1868;-55
2022/09/28 01:32:14;;;;;;;;;;;;;;;7.74;99.06;95059.78;30001;982;1868;-54
2022/09/28 01:32:55;;;;;;;;;;;;;;;7.75;98.59;95055.97;30001;982;1881;-56
2022/09/28 01:33:29;;;;;;;;;;;;;;;7.71;98.37;95055.00;30001;982;1877;-55
2022/09/28 01:34:10;;;;;;;;;;;;;;;7.69;98.37;95059.94;30001;983;1880;-55
2022/09/28 01:35:06;;;;;;;;;;;;;;;7.69;98.55;95057.22;30001;983;1876;-55
2022/09/28 01:35:44;;;;;;;;;;;;;;;7.65;98.58;95057.06;30001;983;1876;-56
2022/09/28 01:36:24;;;;;;;;;;;;;;;7.64;98.65;95049.28;30001;983;1876;-55
2022/09/28 01:36:57;;;;;;;;;;;;;;;7.73;98.68;95052.78;30001;983;1867;-54
2022/09/28 01:37:56;;;;;;;;;;;;;;;7.73;98.34;95058.19;30001;983;1867;-53
2022/09/28 01:38:33;;;;;;;;;;;;;;;7.76;98.30;95052.16;30001;982;1863;-55
2022/09/28 01:39:09;;;;;;;;;;;;;;;7.79;98.32;95054.22;30001;986;1868;-54
2022/09/28 01:39:42;;;;;;;;;;;;;;;7.80;98.24;95047.72;30001;982;1881;-54
2022/09/28 01:40:14;;;;;;;;;;;;;;;7.79;98.09;95046.13;30001;982;1877;-53
2022/09/28 01:40:46;;;;;;;;;;;;;;;7.79;98.26;95050.72;30001;982;1881;-54
2022/09/28 01:41:19;;;;;;;;;;;;;;;7.86;98.02;95035.62;30001;983;1876;-55
2022/09/28 01:41:52;;;;;;;;;;;;;;;7.89;97.35;95034.19;30001;983;1880;-55
2022/09/28 01:42:26;;;;;;;;;;;;;;;7.87;97.21;95045.31;30001;983;1876;-54
2022/09/28 01:43:01;;;;;;;;;;;;;;;7.88;97.26;95049.59;30001;983;1880;-54
2022/09/28 01:43:35;;;;;;;;;;;;;;;7.87;97.55;95037.22;30001;983;1863;-54
2022/09/28 01:44:09;;;;;;;;;;;;;;;7.91;97.17;95038.16;30001;983;1872;-55
2022/09/28 01:44:43;;;;;;;;;;;;;;;7.87;97.04;95041.81;30001;983;1877;-55
2022/09/28 01:45:21;;;;;;;;;;;;;;;7.83;97.43;95035.47;30001;983;1880;-54
2022/09/28 01:46:01;;;;;;;;;;;;;;;7.83;97.65;95032.78;30001;982;1876;-53
2022/09/28 01:46:44;;;;;;;;;;;;;;;7.91;97.70;95034.66;30001;982;1881;-55
2022/09/28 01:47:19;;;;;;;;;;;;;;;8.00;96.78;95024.63;30001;982;1876;-55
2022/09/28 01:47:50;;;;;;;;;;;;;;;8.03;96.67;95027.47;30001;982;1881;-54
2022/09/28 01:48:35;;;;;;;;;;;;;;;8.00;96.38;95025.41;30001;982;1877;-55
2022/09/28 01:49:10;;;;;;;;;;;;;;;8.00;96.71;95028.12;30001;983;1867;-55
2022/09/28 01:49:44;;;;;;;;;;;;;;;7.94;96.50;95018.63;30001;983;1867;-56
2022/09/28 01:50:19;;;;;;;;;;;;;;;7.92;96.91;95020.84;30001;983;1880;-54
2022/09/28 01:50:53;;;;;;;;;;;;;;;8.01;96.65;95031.63;30001;983;1876;-55
2022/09/28 01:51:41;;;;;;;;;;;;;;;8.00;96.50;95016.53;30001;983;1880;-55
2022/09/28 01:52:16;;;;;;;;;;;;;;;7.93;96.81;95019.75;30001;983;1876;-55
2022/09/28 01:52:50;;;;;;;;;;;;;;;7.92;96.86;95020.84;30001;983;1867;-55
2022/09/28 01:53:24;;;;;;;;;;;;;;;7.97;96.92;95011.78;30001;982;1867;-55
2022/09/28 01:53:58;;;;;;;;;;;;;;;7.94;96.61;95015.94;30001;982;1881;-54
2022/09/28 01:54:36;;;;;;;;;;;;;;;7.91;96.96;95011.16;30001;982;1876;-54
2022/09/28 01:55:18;;;;;;;;;;;;;;;7.90;97.19;95009.56;30001;982;1881;-55
2022/09/28 01:55:54;;;;;;;;;;;;;;;7.92;97.11;95012.75;30001;982;1877;-55
2022/09/28 01:56:33;;;;;;;;;;;;;;;7.91;97.40;95013.88;30001;983;1880;-54
2022/09/28 01:57:30;;;;;;;;;;;;;;;7.89;97.11;95012.59;30001;983;1876;-55
2022/09/28 01:58:11;;;;;;;;;;;;;;;7.84;97.53;95010.84;30001;983;1863;-55
2022/09/28 01:59:01;;;;;;;;;;;;;;;7.83;97.71;95013.88;30001;983;1867;-53
2022/09/28 01:59:36;;;;;;;;;;;;;;;7.89;97.76;95010.69;30001;983;1876;-54
2022/09/28 02:00:11;;;;;;;;;;;;;;;7.89;97.87;95008.00;30001;983;1876;-56
2022/09/28 02:00:46;;;;;;;;;;;;;;;7.91;97.78;95011.16;30001;982;1881;-56
2022/09/28 02:01:22;;;;;;;;;;;;;;;7.93;97.86;95014.34;30001;982;1876;-54
2022/09/28 02:01:59;;;;;;;;;;;;;;;7.93;97.61;95008.16;30001;982;1880;-54
2022/09/28 02:02:36;;;;;;;;;;;;;;;7.97;97.43;95009.84;30001;982;1876;-57
2022/09/28 02:03:27;;;;;;;;;;;;;;;8.05;96.85;95011.75;30001;982;1868;-54
2022/09/28 02:04:21;;;;;;;;;;;;;;;8.06;96.36;95007.13;30001;983;1867;-55
2022/09/28 02:04:55;;;;;;;;;;;;;;;8.05;96.76;95006.34;30001;983;1863;-54
2022/09/28 02:05:33;;;;;;;;;;;;;;;8.07;96.81;95004.12;30001;983;1867;-54
2022/09/28 02:06:12;;;;;;;;;;;;;;;8.06;96.27;95005.22;30001;983;1880;-55
2022/09/28 02:06:49;;;;;;;;;;;;;;;8.02;96.31;95001.59;30001;983;1876;-54
2022/09/28 02:07:23;;;;;;;;;;;;;;;7.99;96.67;94996.03;30001;983;1880;-56
2022/09/28 02:08:14;;;;;;;;;;;;;;;7.99;96.98;95002.22;30001;983;1876;-55
2022/09/28 02:08:53;;;;;;;;;;;;;;;7.99;96.91;95001.44;30001;982;1880;-61
2022/09/28 02:09:28;;;;;;;;;;;;;;;7.96;96.83;94997.50;30001;982;1876;-55
2022/09/28 02:10:04;;;;;;;;;;;;;;;7.94;97.19;95005.12;30001;969;1889;-57
2022/09/28 02:10:41;;;;;;;;;;;;;;;7.96;97.20;94997.50;30001;983;1867;-53
2022/09/28 02:11:18;;;;;;;;;;;;;;;7.95;97.31;94998.59;30001;983;1880;-54
2022/09/28 02:11:53;;;;;;;;;;;;;;;7.98;97.11;94989.84;30001;983;1876;-55
2022/09/28 02:12:27;;;;;;;;;;;;;;;8.01;97.24;94988.41;30001;983;1880;-55
2022/09/28 02:13:01;;;;;;;;;;;;;;;7.99;97.06;94991.41;30001;983;1863;-54
2022/09/28 02:13:35;;;;;;;;;;;;;;;7.96;97.23;94992.09;30001;983;1833;-53
2022/09/28 02:14:09;;;;;;;;;;;;;;;7.96;97.36;94991.31;30001;983;1876;-56
2022/09/28 02:14:43;;;;;;;;;;;;;;;7.93;97.41;94992.72;30001;983;1868;-54
2022/09/28 02:15:27;;;;;;;;;;;;;;;7.93;97.46;94992.72;30001;983;1867;-55
2022/09/28 02:16:09;;;;;;;;;;;;;;;7.97;97.45;94999.06;30001;982;1881;-55
2022/09/28 02:16:44;;;;;;;;;;;;;;;7.97;97.31;94988.25;30001;982;1876;-55
2022/09/28 02:17:15;;;;;;;;;;;;;;;8.03;97.29;94996.97;30001;982;1881;-56
2022/09/28 02:17:46;;;;;;;;;;;;;;;8.03;97.15;94989.66;30001;982;1877;-55
2022/09/28 02:18:17;;;;;;;;;;;;;;;8.02;97.14;94989.97;30001;983;1867;-55
2022/09/28 02:18:49;;;;;;;;;;;;;;;8.01;96.86;94988.41;30001;983;1858;-54
2022/09/28 02:19:24;;;;;;;;;;;;;;;8.02;97.14;94982.69;30001;983;1885;-54
2022/09/28 02:19:55;;;;;;;;;;;;;;;8.01;97.12;94989.19;30001;983;1880;-54
2022/09/28 02:20:28;;;;;;;;;;;;;;;7.98;96.93;94987.13;30001;983;1884;-55
2022/09/28 02:21:10;;;;;;;;;;;;;;;8.00;97.20;94986.81;30001;983;1880;-55
2022/09/28 02:21:51;;;;;;;;;;;;;;;7.97;97.41;94982.84;30001;983;1885;-55
2022/09/28 02:22:30;;;;;;;;;;;;;;;8.08;96.64;94989.50;30001;983;1881;-54
2022/09/28 02:23:03;;;;;;;;;;;;;;;8.13;96.66;94988.53;30001;983;1885;-55
2022/09/28 02:23:35;;;;;;;;;;;;;;;8.12;96.74;94983.44;30001;982;1868;-55
2022/09/28 02:24:09;;;;;;;;;;;;;;;8.08;96.35;94989.50;30001;982;1877;-55
2022/09/28 02:25:00;;;;;;;;;;;;;;;8.06;96.61;94990.94;30001;982;1881;-55
2022/09/28 02:25:38;;;;;;;;;;;;;;;8.03;97.02;94986.97;30001;982;1881;-54
2022/09/28 02:26:10;;;;;;;;;;;;;;;8.00;97.00;94987.59;30001;983;1880;-55
2022/09/28 02:26:43;;;;;;;;;;;;;;;7.96;97.20;94981.28;30001;983;1872;-54
2022/09/28 02:27:19;;;;;;;;;;;;;;;8.00;97.49;94986.81;30001;983;1871;-54
2022/09/28 02:28:01;;;;;;;;;;;;;;;8.00;97.41;94976.00;30001;983;1884;-54
2022/09/28 02:28:31;;;;;;;;;;;;;;;8.10;97.06;94980.28;30001;983;1880;-55
2022/09/28 02:29:02;;;;;;;;;;;;;;;8.10;96.62;94980.28;30001;983;1885;-54
2022/09/28 02:29:33;;;;;;;;;;;;;;;8.11;96.96;94979.94;30001;983;1867;-55
2022/09/28 02:30:06;;;;;;;;;;;;;;;8.14;96.65;94978.53;30001;983;1876;-55
2022/09/28 02:30:38;;;;;;;;;;;;;;;8.10;96.49;94986.47;30001;982;1867;-55
2022/09/28 02:31:08;;;;;;;;;;;;;;;8.14;96.15;94976.59;30001;982;1876;-55
2022/09/28 02:31:39;;;;;;;;;;;;;;;8.16;96.29;94979.00;30001;982;1881;-55
2022/09/28 02:32:10;;;;;;;;;;;;;;;8.14;96.40;94982.00;30001;982;1885;-56
2022/09/28 02:32:43;;;;;;;;;;;;;;;8.15;96.33;94985.50;30001;982;1881;-55
2022/09/28 02:33:27;;;;;;;;;;;;;;;8.14;96.49;94975.81;30001;983;1885;-56
2022/09/28 02:33:58;;;;;;;;;;;;;;;8.19;96.31;94972.94;30001;983;1880;-55
2022/09/28 02:34:29;;;;;;;;;;;;;;;8.17;96.19;94975.16;30001;983;1872;-55
2022/09/28 02:35:00;;;;;;;;;;;;;;;8.20;95.91;94969.91;30001;983;1871;-55
2022/09/28 02:35:34;;;;;;;;;;;;;;;8.21;95.76;94976.91;30001;983;1872;-55
2022/09/28 02:36:05;;;;;;;;;;;;;;;8.21;96.14;94970.72;30001;983;1872;-54
2022/09/28 02:36:36;;;;;;;;;;;;;;;8.19;96.16;94973.72;30001;983;1885;-56
2022/09/28 02:37:07;;;;;;;;;;;;;;;8.21;96.01;94965.31;30001;983;1868;-55
2022/09/28 02:37:39;;;;;;;;;;;;;;;8.22;95.69;94967.69;30001;983;1876;-55
2022/09/28 02:38:11;;;;;;;;;;;;;;;8.22;95.62;94972.28;30001;982;1881;-56
2022/09/28 02:38:42;;;;;;;;;;;;;;;8.18;95.79;94966.75;30001;982;1872;-55
2022/09/28 02:39:13;;;;;;;;;;;;;;;8.15;96.23;94958.50;30001;982;1872;-57
2022/09/28 02:39:44;;;;;;;;;;;;;;;8.19;96.23;94964.84;30001;982;1886;-55
2022/09/28 02:40:17;;;;;;;;;;;;;;;8.17;96.29;94962.47;30001;982;1868;-56
2022/09/28 02:41:08;;;;;;;;;;;;;;;8.21;96.02;94957.19;30001;983;1876;-55
2022/09/28 02:42:00;;;;;;;;;;;;;;;8.20;96.08;94958.31;30001;983;1880;-55
2022/09/28 02:42:37;;;;;;;;;;;;;;;8.16;96.31;94957.38;30001;983;1871;-55
2022/09/28 02:43:26;;;;;;;;;;;;;;;8.14;96.57;94959.59;30001;983;1872;-55
2022/09/28 02:44:07;;;;;;;;;;;;;;;8.13;96.97;94964.22;30001;983;1885;-54
2022/09/28 02:45:16;;;;;;;;;;;;;;;8.16;96.58;94960.06;30001;983;1867;-55
2022/09/28 02:46:01;;;;;;;;;;;;;;;8.15;97.01;94955.78;30001;982;1813;-55
2022/09/28 02:47:04;;;;;;;;;;;;;;;8.11;96.79;94955.66;30001;982;1881;-54
2022/09/28 02:47:54;;;;;;;;;;;;;;;8.06;97.04;94953.91;30001;982;1868;-55
2022/09/28 02:48:34;;;;;;;;;;;;;;;8.05;97.47;94951.53;30001;983;1871;-55
2022/09/28 02:49:25;;;;;;;;;;;;;;;8.05;97.78;94952.31;30001;983;1885;-56
2022/09/28 02:50:11;;;;;;;;;;;;;;;8.05;97.54;94955.03;30001;983;1863;-55
2022/09/28 02:51:08;;;;;;;;;;;;;;;8.04;97.71;94956.13;30001;983;1876;-55
2022/09/28 02:51:52;;;;;;;;;;;;;;;8.11;97.89;94954.84;30002;776;1015;-54
2022/09/28 02:52:51;;;;;;;;;;;;;;;8.08;97.71;94957.09;30001;983;1885;-55
2022/09/28 02:53:48;;;;;;;;;;;;;;;8.14;97.32;94956.91;30001;982;1876;-55
2022/09/28 02:54:44;;;;;;;;;;;;;;;8.14;97.15;94957.69;30001;982;1881;-56
2022/09/28 02:55:35;;;;;;;;;;;;;;;8.13;97.45;94955.31;30001;982;1864;-55
2022/09/28 02:56:29;;;;;;;;;;;;;;;8.12;97.56;94945.63;30001;983;1871;-56
2022/09/28 02:57:11;;;;;;;;;;;;;;;8.13;97.33;94958.81;30001;983;1876;-55
2022/09/28 02:58:02;;;;;;;;;;;;;;;8.12;97.38;94956.44;30001;983;1885;-54
2022/09/28 02:59:02;;;;;;;;;;;;;;;8.10;97.79;94950.56;30001;983;1881;-56
2022/09/28 02:59:40;;;;;;;;;;;;;;;8.14;97.51;94954.22;30001;983;1868;-55
2022/09/28 03:00:17;;;;;;;;;;;;;;;8.13;97.55;94949.91;30001;982;1872;-54
2022/09/28 03:01:08;;;;;;;;;;;;;;;8.11;97.86;94949.44;30001;982;1885;-55
2022/09/28 03:01:52;;;;;;;;;;;;;;;8.16;97.31;94947.37;30001;982;1877;-55
2022/09/28 03:02:41;;;;;;;;;;;;;;;8.16;97.75;94946.56;30001;982;1885;-55
2022/09/28 03:03:24;;;;;;;;;;;;;;;8.15;97.95;94943.06;30001;982;1872;-55
2022/09/28 03:04:05;;;;;;;;;;;;;;;8.17;98.10;94948.16;30001;985;1876;-54
2022/09/28 03:04:48;;;;;;;;;;;;;;;8.21;97.96;94943.69;30001;983;1872;-55
2022/09/28 03:05:24;;;;;;;;;;;;;;;8.21;97.62;94949.88;30001;983;1872;-55
2022/09/28 03:06:10;;;;;;;;;;;;;;;8.18;97.34;94944.34;30001;983;1885;-55
2022/09/28 03:07:02;;;;;;;;;;;;;;;8.14;97.97;94940.69;30001;983;1881;-54
2022/09/28 03:07:39;;;;;;;;;;;;;;;8.10;97.81;94947.87;30001;982;1886;-55
2022/09/28 03:08:17;;;;;;;;;;;;;;;8.07;98.22;94947.41;30001;982;1881;-54
2022/09/28 03:09:08;;;;;;;;;;;;;;;8.07;98.21;94947.41;30001;982;1885;-64
2022/09/28 03:09:44;;;;;;;;;;;;;;;8.06;98.51;94948.50;30001;982;1868;-56
2022/09/28 03:10:29;;;;;;;;;;;;;;;8.03;98.92;94949.16;30001;982;1877;-55
2022/09/28 03:11:07;;;;;;;;;;;;;;;8.07;98.81;94943.91;30001;983;1880;-55
2022/09/28 03:12:04;;;;;;;;;;;;;;;8.05;98.93;94941.53;30001;983;1885;-54
2022/09/28 03:12:36;;;;;;;;;;;;;;;8.08;98.69;94946.28;30001;983;1876;-54
2022/09/28 03:13:08;;;;;;;;;;;;;;;8.07;98.72;94950.09;30001;983;1885;-54
2022/09/28 03:13:40;;;;;;;;;;;;;;;8.07;98.96;94947.41;30001;983;1881;-55
2022/09/28 03:14:11;;;;;;;;;;;;;;;8.05;98.67;94946.13;30001;983;1885;-54
2022/09/28 03:14:44;;;;;;;;;;;;;;;8.06;98.70;94948.50;30001;983;1868;-55
2022/09/28 03:15:26;;;;;;;;;;;;;;;8.05;98.72;94946.13;30001;982;1876;-55
2022/09/28 03:16:13;;;;;;;;;;;;;;;8.09;98.73;94941.66;30001;982;1881;-55
2022/09/28 03:16:45;;;;;;;;;;;;;;;8.12;98.51;94935.62;30001;982;1885;-54
2022/09/28 03:17:19;;;;;;;;;;;;;;;8.13;98.36;94931.81;30001;982;1881;-55
2022/09/28 03:17:50;;;;;;;;;;;;;;;8.14;98.27;94940.69;30001;983;1885;-55
2022/09/28 03:18:21;;;;;;;;;;;;;;;8.13;98.01;94939.91;30001;983;1880;-62
2022/09/28 03:18:51;;;;;;;;;;;;;;;8.14;97.97;94938.00;30001;983;1884;-54
2022/09/28 03:19:25;;;;;;;;;;;;;;;8.15;98.15;94934.19;30001;983;1880;-55
2022/09/28 03:19:55;;;;;;;;;;;;;;;8.14;98.04;94935.28;30001;983;1872;-54
2022/09/28 03:20:27;;;;;;;;;;;;;;;8.12;97.79;94937.53;30001;983;1872;-54